Time;durP1;ratioP1;P1;durP2;ratioP2;P2;SDS_P1;SDS_P2;PMS_P1;PMS_P2;Temp;Humidity;BMP_temperature;BMP_pressure;BME280_temperature;BME280_humidity;BME280_pressure;Samples;Min_cycle;Max_cycle;Signal;HPM_P1;HPM_P2
2023/05/12 00:00:34;;;;;;;2.90;2.37;;;11.10;99.90;;;;;;5106064;28;20643;-70
2023/05/12 00:03:02;;;;;;;2.70;2.50;;;11.10;99.90;;;;;;5111561;28;20630;-70
2023/05/12 00:05:29;;;;;;;3.17;1.97;;;11.10;99.90;;;;;;5109759;28;20680;-70
2023/05/12 00:07:57;;;;;;;3.00;2.30;;;11.10;99.90;;;;;;5107977;28;20618;-70
2023/05/12 00:10:25;;;;;;;2.50;2.30;;;11.20;99.90;;;;;;5110826;28;20651;-70
2023/05/12 00:12:54;;;;;;;2.97;2.60;;;11.20;99.90;;;;;;5101197;28;20627;-70
2023/05/12 00:15:21;;;;;;;2.70;2.17;;;11.20;99.90;;;;;;5109111;28;20633;-70
2023/05/12 00:17:48;;;;;;;4.40;2.80;;;11.10;99.90;;;;;;5109574;28;20672;-68
2023/05/12 00:20:14;;;;;;;2.83;2.53;;;11.20;99.90;;;;;;5104578;28;20624;-69
2023/05/12 00:22:41;;;;;;;3.13;2.83;;;11.10;99.90;;;;;;5111307;28;20661;-69
2023/05/12 00:25:09;;;;;;;3.37;2.67;;;11.10;99.90;;;;;;5103409;28;20622;-69
2023/05/12 00:27:36;;;;;;;3.90;3.20;;;11.00;99.90;;;;;;5105150;28;20725;-68
2023/05/12 00:30:03;;;;;;;4.13;2.83;;;10.90;99.90;;;;;;5104962;28;20626;-68
2023/05/12 00:32:30;;;;;;;3.90;3.03;;;11.00;99.90;;;;;;5106335;28;20634;-69
2023/05/12 00:34:57;;;;;;;3.10;2.50;;;11.00;99.90;;;;;;5110515;28;20636;-69
2023/05/12 00:37:24;;;;;;;3.77;3.20;;;10.90;99.90;;;;;;5108824;28;20692;-69
2023/05/12 00:39:51;;;;;;;3.00;2.70;;;10.90;99.90;;;;;;5107676;28;20660;-68
2023/05/12 00:42:20;;;;;;;3.20;2.90;;;10.80;99.90;;;;;;5109466;28;20696;-69
2023/05/12 00:44:47;;;;;;;2.60;2.10;;;10.80;99.90;;;;;;5111618;28;20618;-69
2023/05/12 00:47:13;;;;;;;2.60;2.40;;;10.80;99.90;;;;;;5109382;28;20649;-69
2023/05/12 00:49:41;;;;;;;3.83;3.53;;;10.80;99.90;;;;;;5108906;28;20614;-68
2023/05/12 00:52:09;;;;;;;6.00;2.27;;;10.80;99.90;;;;;;5109549;28;20723;-69
2023/05/12 00:54:36;;;;;;;2.13;2.03;;;10.90;99.90;;;;;;5110385;28;20626;-70
2023/05/12 00:57:03;;;;;;;2.40;2.10;;;10.80;99.90;;;;;;5105925;28;20652;-68
2023/05/12 00:59:31;;;;;;;2.30;1.63;;;10.70;99.90;;;;;;5108256;28;20660;-68
2023/05/12 01:01:58;;;;;;;1.90;1.80;;;10.70;99.90;;;;;;5109375;28;20646;-69
2023/05/12 01:04:25;;;;;;;3.43;2.23;;;10.70;99.90;;;;;;5107563;28;20622;-69
2023/05/12 01:06:58;;;;;;;2.57;1.80;;;10.80;99.90;;;;;;5108007;28;20752;-69
2023/05/12 01:09:25;;;;;;;3.20;2.53;;;10.80;99.90;;;;;;5110041;28;20626;-69
2023/05/12 01:11:52;;;;;;;1.60;1.50;;;10.80;99.90;;;;;;5110517;28;21208;-69
2023/05/12 01:14:18;;;;;;;4.00;1.60;;;10.80;99.90;;;;;;5109823;28;20992;-69
2023/05/12 01:16:51;;;;;;;4.60;2.07;;;10.90;99.90;;;;;;5105555;28;20957;-70
2023/05/12 01:19:30;;;;;;;2.43;2.17;;;10.80;99.90;;;;;;5110674;28;20645;-68
2023/05/12 01:21:57;;;;;;;2.20;2.00;;;10.80;99.90;;;;;;5104854;28;20638;-67
2023/05/12 01:24:29;;;;;;;1.93;1.83;;;10.80;99.90;;;;;;5111413;28;20616;-67
2023/05/12 01:26:59;;;;;;;2.43;2.23;;;10.70;99.90;;;;;;5108666;28;20666;-68
2023/05/12 01:29:28;;;;;;;2.40;2.20;;;10.70;99.90;;;;;;5108436;28;20642;-68
2023/05/12 01:31:56;;;;;;;2.70;2.43;;;10.60;99.90;;;;;;5106285;28;20657;-69
2023/05/12 01:34:23;;;;;;;2.70;2.17;;;10.60;99.90;;;;;;5102934;28;20621;-68
2023/05/12 01:36:50;;;;;;;2.03;1.80;;;10.60;99.90;;;;;;5104122;28;20694;-68
2023/05/12 01:39:17;;;;;;;2.33;2.13;;;10.60;99.90;;;;;;5110474;28;20972;-68
2023/05/12 01:41:44;;;;;;;2.23;2.00;;;10.60;99.90;;;;;;5099178;28;21004;-68
2023/05/12 01:44:13;;;;;;;2.90;2.40;;;10.70;99.90;;;;;;5108193;28;20625;-69
2023/05/12 01:46:40;;;;;;;3.17;2.80;;;10.70;99.90;;;;;;5108916;28;20655;-69
2023/05/12 01:49:08;;;;;;;2.30;2.13;;;10.70;99.90;;;;;;5109717;28;20633;-68
2023/05/12 01:51:35;;;;;;;2.53;2.33;;;10.70;99.90;;;;;;5109925;28;21225;-68
2023/05/12 01:54:03;;;;;;;2.37;2.23;;;10.70;99.90;;;;;;5107337;28;20679;-69
2023/05/12 01:56:30;;;;;;;2.20;1.83;;;10.80;99.90;;;;;;5106830;28;21017;-69
2023/05/12 01:58:57;;;;;;;2.50;2.17;;;10.70;99.90;;;;;;5101160;28;20680;-68
2023/05/12 02:01:27;;;;;;;3.77;2.77;;;10.80;99.90;;;;;;5105865;28;20699;-69
2023/05/12 02:03:55;;;;;;;3.20;2.87;;;10.80;99.90;;;;;;5106933;28;20629;-69
2023/05/12 02:06:23;;;;;;;2.70;2.40;;;10.80;99.90;;;;;;5110298;28;20703;-69
2023/05/12 02:08:52;;;;;;;3.97;3.00;;;10.90;99.90;;;;;;5105577;28;20621;-69
2023/05/12 02:11:19;;;;;;;2.53;2.27;;;10.80;99.90;;;;;;5104689;28;20626;-68
2023/05/12 02:13:46;;;;;;;2.97;2.57;;;10.70;99.90;;;;;;5110633;27;20732;-69
2023/05/12 02:16:13;;;;;;;4.57;2.77;;;10.70;99.90;;;;;;5110507;28;20646;-69
2023/05/12 02:18:42;;;;;;;3.90;2.40;;;10.80;99.90;;;;;;5115258;28;21228;-69
2023/05/12 02:21:08;;;;;;;3.47;2.60;;;10.80;99.90;;;;;;5099064;28;20686;-69
2023/05/12 02:23:35;;;;;;;5.73;3.17;;;10.70;99.90;;;;;;5111260;28;20629;-69
2023/05/12 02:26:02;;;;;;;2.63;2.03;;;10.70;99.90;;;;;;5112080;28;21049;-69
2023/05/12 02:28:29;;;;;;;3.90;2.27;;;10.80;99.90;;;;;;5111050;27;20629;-69
2023/05/12 02:30:56;;;;;;;3.33;3.03;;;10.80;99.90;;;;;;5111150;28;21004;-69
2023/05/12 02:33:25;;;;;;;4.13;2.80;;;10.90;99.90;;;;;;5115062;27;20729;-69
2023/05/12 02:35:53;;;;;;;2.37;2.17;;;10.80;99.90;;;;;;5110537;28;20648;-69
2023/05/12 02:38:21;;;;;;;5.20;2.33;;;10.70;99.90;;;;;;5106765;28;20624;-69
2023/05/12 02:40:49;;;;;;;3.87;3.43;;;10.80;99.90;;;;;;5112803;28;20764;-69
2023/05/12 02:43:17;;;;;;;3.43;2.70;;;10.70;99.90;;;;;;5105534;28;20665;-69
2023/05/12 02:45:44;;;;;;;3.80;3.03;;;10.80;99.90;;;;;;5113636;28;20649;-69
2023/05/12 02:48:11;;;;;;;5.43;3.03;;;10.70;99.90;;;;;;5114364;28;21273;-69
2023/05/12 02:50:38;;;;;;;4.43;4.03;;;10.70;99.90;;;;;;5107070;28;20644;-69
2023/05/12 02:53:06;;;;;;;3.03;2.83;;;10.70;99.90;;;;;;5114593;28;21502;-69
2023/05/12 02:55:33;;;;;;;2.70;2.50;;;10.70;99.90;;;;;;5111820;28;20640;-69
2023/05/12 02:58:01;;;;;;;3.30;2.83;;;10.70;99.90;;;;;;5112104;28;20628;-69
2023/05/12 03:00:28;;;;;;;5.53;3.10;;;10.70;99.90;;;;;;5104024;28;21727;-69
2023/05/12 03:02:55;;;;;;;3.80;2.83;;;10.70;99.90;;;;;;5108408;28;20619;-69
2023/05/12 03:05:23;;;;;;;4.17;3.13;;;10.60;99.90;;;;;;5105694;28;21252;-69
2023/05/12 03:07:51;;;;;;;3.93;2.93;;;10.60;99.90;;;;;;5114157;28;20728;-69
2023/05/12 03:10:20;;;;;;;4.17;2.67;;;10.70;99.90;;;;;;5111904;28;20659;-68
2023/05/12 03:12:47;;;;;;;4.13;3.40;;;10.70;99.90;;;;;;5110635;28;20991;-68
2023/05/12 03:15:15;;;;;;;2.87;2.17;;;10.70;99.90;;;;;;5113128;28;21299;-69
2023/05/12 03:17:43;;;;;;;8.13;2.83;;;10.70;99.90;;;;;;5114011;28;20627;-69
2023/05/12 03:20:12;;;;;;;2.37;2.00;;;10.80;99.90;;;;;;5112176;27;21209;-69
2023/05/12 03:22:40;;;;;;;6.07;4.20;;;10.90;99.90;;;;;;5108462;28;20674;-69
2023/05/12 03:25:10;;;;;;;4.43;3.60;;;10.90;99.90;;;;;;5113385;28;20618;-69
2023/05/12 03:27:38;;;;;;;3.77;3.23;;;11.00;99.90;;;;;;5108839;28;20611;-70
2023/05/12 03:30:06;;;;;;;5.20;4.03;;;11.00;99.90;;;;;;5110507;28;20676;-69
2023/05/12 03:32:32;;;;;;;5.27;3.83;;;11.00;99.90;;;;;;5107311;28;20625;-70
2023/05/12 03:34:59;;;;;;;5.97;4.87;;;11.00;99.90;;;;;;5108725;28;20626;-69
2023/05/12 03:37:26;;;;;;;4.17;3.57;;;11.00;99.90;;;;;;5106829;28;20684;-69
2023/05/12 03:39:54;;;;;;;4.97;3.63;;;11.00;99.90;;;;;;5112665;28;20658;-68
2023/05/12 03:42:22;;;;;;;7.67;3.70;;;11.00;99.90;;;;;;5110885;27;20649;-69
2023/05/12 03:44:51;;;;;;;5.93;4.30;;;11.00;99.90;;;;;;5107034;28;20678;-69
2023/05/12 03:47:17;;;;;;;4.80;4.30;;;11.00;99.90;;;;;;5112490;28;20680;-69
2023/05/12 03:49:44;;;;;;;4.20;3.07;;;11.00;99.90;;;;;;5099809;28;20636;-68
2023/05/12 03:52:11;;;;;;;4.63;3.87;;;11.00;99.90;;;;;;5109712;28;20650;-69
2023/05/12 03:54:38;;;;;;;5.00;4.50;;;11.00;99.90;;;;;;5104737;28;20621;-69
2023/05/12 03:57:05;;;;;;;6.87;4.37;;;11.10;99.90;;;;;;5111992;27;21003;-69
2023/05/12 03:59:32;;;;;;;7.00;4.63;;;11.00;99.90;;;;;;5111660;28;20660;-69
2023/05/12 04:02:00;;;;;;;5.40;4.27;;;11.00;99.90;;;;;;5111940;28;20634;-69
2023/05/12 04:04:27;;;;;;;3.87;3.40;;;11.10;99.90;;;;;;5104436;28;20629;-69
2023/05/12 04:06:53;;;;;;;7.90;3.80;;;11.10;99.90;;;;;;5104354;28;20669;-69
2023/05/12 04:09:20;;;;;;;7.93;4.43;;;11.00;99.90;;;;;;5109053;28;20626;-69
2023/05/12 04:11:47;;;;;;;4.77;3.57;;;11.00;99.90;;;;;;5111598;28;20980;-69
2023/05/12 04:14:14;;;;;;;5.37;3.70;;;11.00;99.90;;;;;;5112811;28;20614;-69
2023/05/12 04:16:41;;;;;;;5.53;3.63;;;11.10;99.90;;;;;;5110666;28;20653;-69
2023/05/12 04:19:09;;;;;;;5.77;3.13;;;11.10;99.90;;;;;;5110622;28;20658;-69
2023/05/12 04:21:35;;;;;;;7.73;3.90;;;11.10;99.90;;;;;;5107173;28;21222;-69
2023/05/12 04:24:02;;;;;;;2.90;2.23;;;11.10;99.90;;;;;;5105146;28;20738;-69
2023/05/12 04:26:29;;;;;;;5.53;3.50;;;11.20;99.90;;;;;;5110477;28;20663;-70
2023/05/12 04:28:56;;;;;;;4.93;4.47;;;11.10;99.90;;;;;;5111693;28;20624;-69
2023/05/12 04:31:23;;;;;;;4.40;3.10;;;11.10;99.90;;;;;;5109698;28;20752;-69
2023/05/12 04:33:50;;;;;;;6.07;4.33;;;11.10;99.90;;;;;;5110802;28;20653;-70
2023/05/12 04:36:18;;;;;;;6.27;4.00;;;11.20;99.90;;;;;;5107572;28;21246;-69
2023/05/12 04:38:45;;;;;;;6.13;2.70;;;11.20;99.90;;;;;;5112372;28;20618;-69
2023/05/12 04:41:12;;;;;;;6.23;4.47;;;11.20;99.90;;;;;;5109770;28;20633;-68
2023/05/12 04:43:39;;;;;;;6.93;5.03;;;11.10;99.90;;;;;;5106301;28;21189;-68
2023/05/12 04:46:06;;;;;;;5.20;3.90;;;11.00;99.90;;;;;;5110851;28;21053;-68
2023/05/12 04:48:32;;;;;;;5.23;3.40;;;11.00;99.90;;;;;;5103331;28;20625;-69
2023/05/12 04:50:59;;;;;;;6.37;4.07;;;11.00;99.90;;;;;;5108842;28;20633;-69
2023/05/12 04:53:28;;;;;;;4.47;4.10;;;10.90;99.90;;;;;;5110572;28;20626;-68
2023/05/12 04:55:55;;;;;;;4.50;3.23;;;11.00;99.90;;;;;;5110685;28;20737;-68
2023/05/12 04:58:22;;;;;;;3.80;3.27;;;10.90;99.90;;;;;;5098777;28;20627;-68
2023/05/12 05:00:49;;;;;;;4.30;3.67;;;11.00;99.90;;;;;;5110399;27;21364;-69
2023/05/12 05:03:15;;;;;;;4.77;3.80;;;11.00;99.90;;;;;;5109578;28;22050;-69
2023/05/12 05:05:42;;;;;;;4.57;3.87;;;11.00;99.90;;;;;;5102077;28;20658;-68
2023/05/12 05:08:09;;;;;;;6.20;3.53;;;11.10;99.90;;;;;;5102526;28;21177;-68
2023/05/12 05:10:37;;;;;;;5.00;3.77;;;11.10;99.90;;;;;;5110206;28;20656;-68
2023/05/12 05:13:04;;;;;;;4.00;2.83;;;11.10;99.90;;;;;;5103445;28;20623;-69
2023/05/12 05:15:31;;;;;;;7.93;3.97;;;11.30;99.90;;;;;;5111177;27;20653;-68
2023/05/12 05:17:58;;;;;;;7.40;3.53;;;11.30;99.90;;;;;;5106153;28;20628;-68
2023/05/12 05:20:27;;;;;;;2.97;2.67;;;11.30;99.90;;;;;;5109883;28;20691;-68
2023/05/12 05:22:54;;;;;;;8.23;4.77;;;11.40;99.90;;;;;;5110416;28;20670;-68
2023/05/12 05:25:20;;;;;;;5.27;3.60;;;11.40;99.90;;;;;;5111037;27;20977;-68
2023/05/12 05:27:48;;;;;;;5.10;4.47;;;11.40;99.90;;;;;;5103654;28;20626;-69
2023/05/12 05:30:15;;;;;;;9.83;4.83;;;11.40;99.90;;;;;;5096985;28;20630;-68
2023/05/12 05:32:42;;;;;;;3.67;2.87;;;11.40;99.90;;;;;;5097837;28;20648;-68
2023/05/12 05:35:09;;;;;;;6.37;2.97;;;11.40;99.90;;;;;;5106498;28;20736;-69
2023/05/12 05:37:36;;;;;;;5.10;3.73;;;11.50;99.90;;;;;;5099534;28;20972;-69
2023/05/12 05:40:03;;;;;;;4.37;2.47;;;11.60;99.90;;;;;;5103183;28;20694;-69
2023/05/12 05:42:30;;;;;;;3.03;2.60;;;11.60;99.90;;;;;;5106655;28;20633;-68
2023/05/12 05:44:58;;;;;;;2.77;2.53;;;11.60;99.90;;;;;;5102465;28;20724;-69
2023/05/12 05:47:27;;;;;;;4.20;3.77;;;11.60;99.90;;;;;;5114000;28;20656;-69
2023/05/12 05:49:53;;;;;;;4.67;3.73;;;11.60;99.90;;;;;;5110555;28;20755;-69
2023/05/12 05:52:21;;;;;;;5.77;4.10;;;11.60;99.90;;;;;;5108010;28;20645;-69
2023/05/12 05:54:48;;;;;;;4.87;3.73;;;11.60;99.90;;;;;;5107212;28;20666;-68
2023/05/12 05:57:15;;;;;;;4.93;3.30;;;11.70;99.90;;;;;;5114173;28;20650;-69
2023/05/12 05:59:41;;;;;;;4.43;4.03;;;11.70;99.90;;;;;;5099005;28;20658;-69
2023/05/12 06:02:09;;;;;;;4.83;4.10;;;11.70;99.90;;;;;;5113734;28;20757;-69
2023/05/12 06:04:36;;;;;;;5.23;3.20;;;11.70;99.90;;;;;;5111582;28;20657;-68
2023/05/12 06:07:03;;;;;;;4.07;2.80;;;11.70;99.90;;;;;;5097997;28;20642;-69
2023/05/12 06:09:31;;;;;;;8.13;4.40;;;11.80;99.90;;;;;;5102837;28;21165;-69
2023/05/12 06:11:57;;;;;;;4.97;3.73;;;11.80;99.90;;;;;;5107090;28;21066;-68
2023/05/12 06:14:24;;;;;;;5.30;3.90;;;11.90;99.90;;;;;;5107693;28;20634;-68
2023/05/12 06:16:51;;;;;;;4.80;3.50;;;11.90;99.90;;;;;;5113575;28;20665;-68
2023/05/12 06:19:19;;;;;;;5.40;4.90;;;11.90;99.90;;;;;;5108788;28;20971;-69
2023/05/12 06:21:46;;;;;;;5.73;3.97;;;12.00;99.90;;;;;;5106961;28;20650;-69
2023/05/12 06:24:14;;;;;;;3.63;3.10;;;12.00;99.90;;;;;;5105902;28;20631;-69
2023/05/12 06:26:41;;;;;;;6.60;3.77;;;12.00;99.90;;;;;;5105459;28;20643;-70
2023/05/12 06:29:07;;;;;;;5.70;3.80;;;12.00;99.90;;;;;;5113541;28;20679;-70
2023/05/12 06:31:34;;;;;;;5.27;3.77;;;12.10;99.90;;;;;;5112436;28;21014;-71
2023/05/12 06:34:02;;;;;;;5.13;3.30;;;12.00;99.90;;;;;;5109184;28;20638;-70
2023/05/12 06:36:30;;;;;;;3.50;2.63;;;12.10;99.90;;;;;;5105854;28;21217;-70
2023/05/12 06:38:57;;;;;;;4.47;3.37;;;12.10;99.90;;;;;;5110011;28;21307;-71
2023/05/12 06:41:24;;;;;;;4.10;3.30;;;12.00;99.90;;;;;;5111849;27;20661;-71
2023/05/12 06:43:51;;;;;;;3.80;2.87;;;12.00;99.90;;;;;;5113990;28;20617;-71
2023/05/12 06:46:18;;;;;;;5.40;3.10;;;12.10;99.90;;;;;;5112745;28;20656;-71
2023/05/12 06:48:45;;;;;;;4.30;2.47;;;11.80;99.90;;;;;;5108778;27;21026;-71
2023/05/12 06:51:12;;;;;;;5.57;3.23;;;11.70;99.90;;;;;;5109266;28;20746;-71
2023/05/12 06:53:41;;;;;;;7.03;4.27;;;11.70;99.90;;;;;;5112290;28;21031;-71
2023/05/12 06:56:10;;;;;;;4.13;3.30;;;11.90;99.90;;;;;;5111458;28;20966;-71
2023/05/12 06:58:37;;;;;;;5.47;3.50;;;12.00;99.90;;;;;;5111544;28;21182;-71
2023/05/12 07:01:04;;;;;;;5.07;4.13;;;12.20;99.90;;;;;;5111929;28;20663;-70
2023/05/12 07:03:32;;;;;;;4.80;3.60;;;12.20;99.90;;;;;;5108410;28;20724;-71
2023/05/12 07:05:59;;;;;;;2.67;2.40;;;12.10;99.90;;;;;;5107706;28;20965;-71
2023/05/12 07:08:26;;;;;;;3.13;2.60;;;12.20;99.90;;;;;;5111492;28;20619;-71
2023/05/12 07:10:54;;;;;;;3.00;2.30;;;12.30;99.90;;;;;;5104018;28;20752;-71
2023/05/12 07:13:21;;;;;;;2.10;1.87;;;12.40;99.90;;;;;;5110894;28;20626;-70
2023/05/12 07:15:48;;;;;;;4.57;2.37;;;12.50;99.90;;;;;;5110365;28;21221;-70
2023/05/12 07:18:15;;;;;;;2.30;2.00;;;12.60;99.90;;;;;;5112689;28;20644;-70
2023/05/12 07:20:42;;;;;;;2.47;2.27;;;12.70;99.90;;;;;;5112447;28;20703;-70
2023/05/12 07:23:09;;;;;;;4.07;3.00;;;12.80;99.90;;;;;;5113080;28;20611;-72
2023/05/12 07:25:36;;;;;;;3.20;2.70;;;12.80;99.90;;;;;;5113128;28;21015;-70
2023/05/12 07:28:07;;;;;;;3.23;2.90;;;12.70;99.90;;;;;;5113016;28;21367;-70
2023/05/12 07:30:34;;;;;;;4.00;3.00;;;12.80;99.90;;;;;;5111831;28;20623;-70
2023/05/12 07:33:01;;;;;;;2.17;1.97;;;12.80;99.90;;;;;;5109893;28;20656;-70
2023/05/12 07:35:30;;;;;;;3.77;2.57;;;12.80;99.90;;;;;;5110479;28;20654;-70
2023/05/12 07:37:57;;;;;;;3.50;2.10;;;12.70;99.90;;;;;;5105576;28;20654;-70
2023/05/12 07:40:24;;;;;;;2.10;1.50;;;13.10;99.90;;;;;;5105841;28;20773;-72
2023/05/12 07:42:52;;;;;;;2.70;2.30;;;13.20;99.90;;;;;;5100365;28;20724;-70
2023/05/12 07:45:27;;;;;;;2.83;2.50;;;13.30;99.90;;;;;;5101163;28;20636;-70
2023/05/12 07:47:54;;;;;;;3.50;2.50;;;13.30;99.90;;;;;;5106167;28;20990;-71
2023/05/12 07:50:21;;;;;;;4.43;2.83;;;13.20;99.90;;;;;;5109556;28;20621;-71
2023/05/12 07:52:49;;;;;;;2.03;1.93;;;13.10;99.90;;;;;;5109187;28;20624;-71
2023/05/12 07:55:16;;;;;;;1.77;1.50;;;13.00;99.90;;;;;;5106519;28;20631;-69
2023/05/12 07:57:43;;;;;;;2.10;1.70;;;13.10;99.90;;;;;;5107653;28;20630;-71
2023/05/12 08:00:12;;;;;;;7.10;2.33;;;13.10;99.90;;;;;;5109614;28;20711;-71
2023/05/12 08:02:41;;;;;;;3.07;2.60;;;13.00;99.90;;;;;;5108496;28;20627;-71
2023/05/12 08:05:09;;;;;;;2.77;2.33;;;12.70;99.90;;;;;;5109931;28;20629;-71
2023/05/12 08:07:37;;;;;;;2.43;2.00;;;12.80;99.90;;;;;;5105379;28;20632;-73
2023/05/12 08:10:05;;;;;;;2.57;1.70;;;13.00;99.90;;;;;;5105063;28;20637;-72
2023/05/12 08:12:32;;;;;;;2.07;1.70;;;13.20;99.90;;;;;;5103327;28;20669;-70
2023/05/12 08:14:59;;;;;;;2.13;1.90;;;13.60;99.90;;;;;;5103286;28;20631;-71
2023/05/12 08:17:25;;;;;;;1.73;1.43;;;13.70;99.90;;;;;;5103685;28;20642;-70
2023/05/12 08:19:54;;;;;;;1.70;1.57;;;13.90;99.90;;;;;;5108934;28;20642;-71
2023/05/12 08:22:20;;;;;;;1.87;1.77;;;14.10;99.90;;;;;;5110281;28;20991;-71
2023/05/12 08:24:47;;;;;;;2.37;2.17;;;14.20;99.90;;;;;;5101990;28;20721;-72
2023/05/12 08:27:14;;;;;;;3.40;2.20;;;14.10;99.90;;;;;;5106973;28;20753;-71
2023/05/12 08:29:41;;;;;;;2.03;1.87;;;13.90;99.90;;;;;;5110251;28;20625;-70
2023/05/12 08:32:07;;;;;;;2.53;2.33;;;13.80;99.90;;;;;;5100654;28;20661;-69
2023/05/12 08:34:34;;;;;;;2.47;1.80;;;13.70;99.90;;;;;;5102151;28;20720;-71
2023/05/12 08:37:03;;;;;;;2.57;2.37;;;13.60;99.90;;;;;;5107708;28;20684;-70
2023/05/12 08:39:30;;;;;;;3.70;2.87;;;13.60;99.90;;;;;;5106460;28;21221;-71
2023/05/12 08:42:08;;;;;;;2.00;1.60;;;13.40;99.90;;;;;;5103413;28;20691;-71
2023/05/12 08:44:36;;;;;;;2.90;2.60;;;13.30;99.90;;;;;;5099569;28;21176;-71
2023/05/12 08:47:05;;;;;;;3.10;2.10;;;13.20;99.90;;;;;;5100212;28;20650;-71
2023/05/12 08:49:33;;;;;;;2.23;2.03;;;13.20;99.90;;;;;;5098467;28;20624;-70
2023/05/12 08:52:03;;;;;;;2.27;2.07;;;13.10;99.90;;;;;;5106554;28;20647;-71
2023/05/12 08:54:30;;;;;;;2.23;2.00;;;13.10;99.90;;;;;;5106825;28;20631;-70
2023/05/12 08:56:57;;;;;;;2.70;2.33;;;13.10;99.90;;;;;;5105788;28;20764;-70
2023/05/12 08:59:24;;;;;;;1.70;1.57;;;13.20;99.90;;;;;;5105807;28;21106;-70
2023/05/12 09:01:52;;;;;;;4.20;2.73;;;13.20;99.90;;;;;;5095098;28;20732;-71
2023/05/12 09:04:19;;;;;;;2.33;2.13;;;13.50;99.90;;;;;;5105227;28;20632;-71
2023/05/12 09:06:46;;;;;;;3.00;2.17;;;13.60;99.90;;;;;;5103229;28;20648;-71
2023/05/12 09:09:17;;;;;;;1.73;1.50;;;13.80;99.90;;;;;;5102138;28;20635;-71
2023/05/12 09:11:45;;;;;;;1.47;1.37;;;14.00;99.90;;;;;;5107121;28;20658;-71
2023/05/12 09:14:17;;;;;;;2.27;1.40;;;14.10;99.90;;;;;;5101133;28;20629;-71
2023/05/12 09:16:47;;;;;;;1.90;1.80;;;14.00;99.90;;;;;;5101057;28;20784;-71
2023/05/12 09:19:20;;;;;;;3.70;2.07;;;14.00;99.90;;;;;;5105115;28;20627;-71
2023/05/12 09:21:46;;;;;;;1.77;1.67;;;14.00;99.90;;;;;;5107721;28;20691;-71
2023/05/12 09:24:15;;;;;;;2.27;1.80;;;13.90;99.90;;;;;;5102637;28;20627;-71
2023/05/12 09:26:46;;;;;;;1.40;1.30;;;13.90;99.90;;;;;;5107655;28;20647;-72
2023/05/12 09:29:13;;;;;;;1.60;1.50;;;14.00;99.90;;;;;;5092265;28;20996;-71
2023/05/12 09:31:48;;;;;;;2.33;1.70;;;14.00;99.90;;;;;;5101515;28;20653;-71
2023/05/12 09:34:15;;;;;;;1.20;1.10;;;14.00;99.90;;;;;;5106285;28;20631;-71
2023/05/12 09:36:42;;;;;;;2.00;1.43;;;14.10;99.90;;;;;;5101009;28;20657;-71
2023/05/12 09:39:09;;;;;;;1.23;1.10;;;14.10;99.90;;;;;;5102959;28;20724;-71
2023/05/12 09:41:39;;;;;;;1.40;1.30;;;14.10;99.90;;;;;;5105923;28;20668;-71
2023/05/12 09:44:07;;;;;;;3.40;1.90;;;14.20;99.90;;;;;;5100515;28;20632;-71
2023/05/12 09:46:34;;;;;;;2.10;1.93;;;14.40;99.90;;;;;;5105390;28;20664;-72
2023/05/12 09:49:02;;;;;;;1.70;1.30;;;14.20;99.90;;;;;;5107760;28;20626;-72
2023/05/12 09:51:30;;;;;;;1.33;1.20;;;14.30;99.90;;;;;;5107024;28;20656;-72
2023/05/12 09:53:56;;;;;;;1.20;1.10;;;14.30;99.90;;;;;;5107565;28;20625;-72
2023/05/12 09:56:27;;;;;;;0.93;0.90;;;14.60;99.90;;;;;;5107316;28;20649;-72
2023/05/12 09:58:57;;;;;;;1.53;1.27;;;14.90;99.90;;;;;;5106923;28;20652;-70
2023/05/12 10:01:24;;;;;;;1.90;1.57;;;15.10;99.90;;;;;;5106027;28;20676;-71
2023/05/12 10:03:53;;;;;;;2.40;2.08;;;15.00;99.20;;;;;;5102674;28;20757;-72
2023/05/12 10:06:24;;;;;;;1.70;1.60;;;14.80;99.90;;;;;;5103239;28;20649;-70
2023/05/12 10:08:59;;;;;;;2.65;1.85;;;14.70;99.90;;;;;;5098827;28;21121;-70
2023/05/12 10:11:26;;;;;;;1.70;1.60;;;14.80;99.90;;;;;;5106013;28;20224;-71
2023/05/12 10:13:55;;;;;;;1.77;1.43;;;14.90;99.80;;;;;;5107737;28;20625;-70
2023/05/12 10:16:22;;;;;;;3.50;1.23;;;14.50;99.60;;;;;;5107215;28;20648;-70
2023/05/12 10:18:50;;;;;;;2.27;1.77;;;14.60;99.90;;;;;;5106456;28;20618;-71
2023/05/12 10:21:17;;;;;;;1.50;1.40;;;14.60;99.90;;;;;;5105132;28;21249;-69
2023/05/12 10:23:44;;;;;;;2.30;2.10;;;14.60;99.90;;;;;;5104266;28;20624;-70
2023/05/12 10:26:12;;;;;;;1.40;1.30;;;14.80;99.90;;;;;;5107563;28;20656;-70
2023/05/12 10:28:39;;;;;;;2.33;1.63;;;15.00;99.90;;;;;;5107195;28;21186;-70
2023/05/12 10:31:08;;;;;;;3.93;2.33;;;15.10;99.70;;;;;;5105853;28;20685;-69
2023/05/12 10:33:37;;;;;;;2.50;1.87;;;15.30;99.90;;;;;;5106218;28;20621;-72
2023/05/12 10:36:05;;;;;;;1.57;1.40;;;15.50;99.40;;;;;;5110785;28;20641;-71
2023/05/12 10:38:36;;;;;;;2.50;2.00;;;15.70;99.20;;;;;;5111191;28;20716;-70
2023/05/12 10:41:06;;;;;;;5.20;2.00;;;15.70;98.90;;;;;;5108687;28;20665;-70
2023/05/12 10:43:39;;;;;;;1.83;1.70;;;15.80;98.50;;;;;;5111272;27;21206;-70
2023/05/12 10:46:16;;;;;;;1.27;1.27;;;15.70;98.00;;;;;;5109654;28;20658;-69
2023/05/12 10:48:54;;;;;;;2.77;1.67;;;15.50;98.00;;;;;;5108413;28;20641;-70
2023/05/12 10:51:23;;;;;;;1.43;1.27;;;15.10;98.90;;;;;;5103724;27;21214;-69
2023/05/12 10:53:56;;;;;;;2.27;1.90;;;15.40;98.10;;;;;;5106579;28;20628;-70
2023/05/12 10:56:25;;;;;;;1.10;1.10;;;15.40;97.30;;;;;;5110540;28;20646;-70
2023/05/12 10:59:22;;;;;;;1.50;1.40;;;15.40;97.80;;;;;;5110196;28;20622;-71
2023/05/12 11:02:01;;;;;;;1.20;1.07;;;15.30;97.60;;;;;;5066413;28;20671;-69
2023/05/12 11:04:42;;;;;;;2.20;2.00;;;15.30;98.00;;;;;;5094077;28;20636;-69
2023/05/12 11:07:10;;;;;;;2.00;1.73;;;15.20;98.70;;;;;;5101723;28;21255;-69
2023/05/12 11:09:38;;;;;;;1.53;1.33;;;15.10;98.80;;;;;;5109650;28;21255;-69
2023/05/12 11:12:07;;;;;;;2.30;1.90;;;15.10;98.70;;;;;;5109689;28;20655;-70
2023/05/12 11:14:34;;;;;;;1.70;1.60;;;15.00;98.90;;;;;;5110143;28;21003;-70
2023/05/12 11:17:03;;;;;;;3.17;2.27;;;14.90;99.50;;;;;;5110479;28;20653;-69
2023/05/12 11:19:31;;;;;;;3.07;2.03;;;14.80;99.90;;;;;;5109416;28;21178;-69
2023/05/12 11:21:58;;;;;;;2.47;2.27;;;14.70;99.90;;;;;;5109250;28;20805;-71
2023/05/12 11:24:25;;;;;;;2.60;1.97;;;14.60;99.90;;;;;;5110555;28;21017;-71
2023/05/12 11:26:52;;;;;;;3.97;3.67;;;14.60;99.90;;;;;;5108470;28;20729;-70
2023/05/12 11:29:19;;;;;;;3.53;3.23;;;14.60;99.90;;;;;;5107800;28;20743;-71
2023/05/12 11:31:49;;;;;;;2.93;2.43;;;14.50;99.90;;;;;;5103254;28;20667;-70
2023/05/12 11:34:21;;;;;;;2.17;1.97;;;14.50;99.90;;;;;;5104751;28;20709;-70
2023/05/12 11:36:48;;;;;;;2.33;1.73;;;14.40;99.90;;;;;;5109514;28;20636;-70
2023/05/12 11:39:19;;;;;;;1.60;1.47;;;14.60;99.90;;;;;;5105697;28;20714;-70
2023/05/12 11:41:47;;;;;;;1.70;1.40;;;14.60;99.90;;;;;;5102164;28;20755;-71
2023/05/12 11:44:15;;;;;;;2.13;1.90;;;14.50;99.90;;;;;;5106914;28;20621;-71
2023/05/12 11:46:42;;;;;;;3.00;1.97;;;14.50;99.90;;;;;;5109280;28;20644;-71
2023/05/12 11:49:12;;;;;;;1.90;1.67;;;14.60;99.90;;;;;;5108974;28;20713;-71
2023/05/12 11:51:43;;;;;;;2.00;1.90;;;14.40;99.90;;;;;;5103175;28;20644;-71
2023/05/12 11:54:10;;;;;;;1.27;1.17;;;14.50;99.90;;;;;;5105772;28;20653;-71
2023/05/12 11:56:37;;;;;;;0.97;0.97;;;14.40;99.90;;;;;;5106040;28;20977;-70
2023/05/12 11:59:04;;;;;;;1.20;1.10;;;14.50;99.90;;;;;;5108767;28;20727;-71
2023/05/12 12:01:32;;;;;;;1.17;1.07;;;14.50;99.90;;;;;;5100382;28;20676;-70
2023/05/12 12:03:59;;;;;;;0.97;0.87;;;14.50;99.90;;;;;;5109277;28;20698;-70
2023/05/12 12:06:26;;;;;;;1.20;1.10;;;14.60;99.90;;;;;;5108419;28;21240;-71
2023/05/12 12:08:56;;;;;;;1.00;0.90;;;14.50;99.90;;;;;;5108916;28;20666;-70
2023/05/12 12:11:25;;;;;;;1.27;1.17;;;14.40;99.90;;;;;;5107713;27;21027;-70
2023/05/12 12:13:56;;;;;;;2.47;1.80;;;14.40;99.90;;;;;;5107970;27;20640;-69
2023/05/12 12:16:25;;;;;;;0.73;0.63;;;14.30;99.90;;;;;;5109161;28;20648;-69
2023/05/12 12:18:51;;;;;;;0.70;0.70;;;14.30;99.90;;;;;;5108884;28;20650;-70
2023/05/12 12:21:19;;;;;;;0.80;0.80;;;14.20;99.90;;;;;;5107341;28;20754;-69
2023/05/12 12:23:46;;;;;;;1.47;1.37;;;14.20;99.90;;;;;;5107189;28;20682;-70
2023/05/12 12:26:15;;;;;;;5.17;4.63;;;14.30;99.90;;;;;;5106655;28;20996;-69
2023/05/12 12:28:42;;;;;;;1.73;1.63;;;14.30;99.90;;;;;;5108103;28;21168;-70
2023/05/12 12:31:09;;;;;;;2.07;1.70;;;14.30;99.90;;;;;;5107213;28;20666;-70
2023/05/12 12:33:36;;;;;;;1.67;1.50;;;14.50;99.90;;;;;;5105992;28;20625;-71
2023/05/12 12:36:04;;;;;;;1.80;1.70;;;14.50;99.90;;;;;;5106952;28;20645;-71
2023/05/12 12:38:31;;;;;;;2.00;1.40;;;14.70;99.90;;;;;;5104669;28;20623;-71
2023/05/12 12:40:58;;;;;;;2.43;1.50;;;15.00;99.90;;;;;;5103303;28;20658;-69
2023/05/12 12:43:26;;;;;;;1.73;1.63;;;14.90;99.90;;;;;;5103770;28;20693;-69
2023/05/12 12:45:54;;;;;;;4.33;1.73;;;14.70;99.90;;;;;;5108285;27;20731;-70
2023/05/12 12:48:21;;;;;;;2.17;1.50;;;14.80;99.90;;;;;;5107956;27;20679;-70
2023/05/12 12:50:47;;;;;;;2.33;2.17;;;14.90;99.90;;;;;;5101942;28;20649;-71